Time;durP1;ratioP1;P1;durP2;ratioP2;P2;SDS_P1;SDS_P2;PMS_P1;PMS_P2;Temp;Humidity;BMP_temperature;BMP_pressure;BME280_temperature;BME280_humidity;BME280_pressure;Samples;Min_cycle;Max_cycle;Signal;HPM_P1;HPM_P2
2022/09/25 04:02:57;;;;;;;;;;;12.10;99.90;;;;;;5156605;23;95403;-76
2022/09/25 04:05:22;;;;;;;8.98;5.18;;;12.00;99.90;;;;;;4914226;28;91574;-76
2022/09/25 04:07:48;;;;;;;8.70;4.68;;;12.10;99.90;;;;;;4917036;28;91752;-76
2022/09/25 04:10:14;;;;;;;8.85;4.53;;;12.10;99.90;;;;;;4912935;28;92136;-76
2022/09/25 04:12:41;;;;;;;9.30;4.32;;;12.10;99.90;;;;;;4915944;28;91896;-76
2022/09/25 04:15:08;;;;;;;6.45;3.72;;;12.00;99.90;;;;;;4915449;28;91363;-77
2022/09/25 04:17:34;;;;;;;8.93;4.13;;;12.00;99.90;;;;;;4911520;28;90653;-76
2022/09/25 04:20:00;;;;;;;5.95;3.38;;;12.00;99.90;;;;;;4913990;28;91673;-77
2022/09/25 04:22:26;;;;;;;6.45;3.65;;;12.10;99.90;;;;;;4916979;28;91577;-75
2022/09/25 04:24:53;;;;;;;7.93;3.40;;;12.20;99.90;;;;;;4916933;28;92178;-75
2022/09/25 04:27:22;;;;;;;7.20;3.65;;;12.40;99.90;;;;;;4912810;28;92045;-75
2022/09/25 04:29:48;;;;;;;8.38;3.35;;;12.50;99.90;;;;;;4916366;28;93105;-75
2022/09/25 04:35:00;;;;;;;6.25;3.53;;;12.50;99.90;;;;;;4911028;28;91970;-74
2022/09/25 04:37:26;;;;;;;6.43;3.47;;;12.60;99.90;;;;;;4917425;28;92437;-74
2022/09/25 04:39:56;;;;;;;6.43;3.58;;;12.60;99.90;;;;;;4915382;28;92268;-74
2022/09/25 04:42:23;;;;;;;;;;;12.60;99.90;;;;;;4914340;28;91931;-74
2022/09/25 04:44:53;;;;;;;5.70;3.63;;;12.60;99.90;;;;;;4911934;28;91393;-75
2022/09/25 04:47:21;;;;;;;7.75;3.50;;;12.40;99.90;;;;;;4914097;28;92349;-75
2022/09/25 04:49:47;;;;;;;4.90;3.15;;;12.30;99.90;;;;;;4916394;28;93185;-76
2022/09/25 04:52:17;;;;;;;6.18;3.33;;;12.30;99.90;;;;;;4914885;28;92921;-75
2022/09/25 04:54:43;;;;;;;5.13;3.10;;;12.40;99.90;;;;;;4916473;28;91289;-76
2022/09/25 04:57:14;;;;;;;5.25;2.85;;;12.50;99.90;;;;;;4916468;28;91885;-75
2022/09/25 04:59:40;;;;;;;6.70;3.53;;;12.50;99.90;;;;;;4915636;28;92422;-75
2022/09/25 05:02:05;;;;;;;6.60;3.30;;;12.50;99.90;;;;;;4910210;28;91954;-75
2022/09/25 05:04:31;;;;;;;8.48;3.78;;;12.50;99.90;;;;;;4895974;28;91799;-75
2022/09/25 05:06:57;;;;;;;6.47;2.92;;;12.40;99.90;;;;;;4892364;28;90577;-75
2022/09/25 05:09:23;;;;;;;7.50;3.85;;;12.50;99.90;;;;;;4896617;28;92294;-75
2022/09/25 05:11:48;;;;;;;7.22;3.63;;;12.50;99.90;;;;;;4896946;28;92514;-75
2022/09/25 05:14:14;;;;;;;5.40;3.22;;;12.50;99.90;;;;;;4896267;28;93331;-76
2022/09/25 05:16:40;;;;;;;7.28;4.18;;;12.40;99.90;;;;;;4895499;28;91981;-74
2022/09/25 05:19:05;;;;;;;8.27;3.90;;;12.40;99.90;;;;;;4893392;28;92880;-75
2022/09/25 05:21:31;;;;;;;12.25;4.22;;;12.20;99.90;;;;;;4897076;28;91904;-74
2022/09/25 05:23:57;;;;;;;10.13;4.55;;;12.10;99.90;;;;;;4896874;28;91360;-77
2022/09/25 05:26:23;;;;;;;7.25;3.83;;;12.00;99.90;;;;;;4896566;28;91315;-76
2022/09/25 05:28:49;;;;;;;6.43;3.28;;;12.00;99.90;;;;;;4894372;28;93181;-75
2022/09/25 05:31:16;;;;;;;5.38;3.50;;;12.10;99.90;;;;;;4895220;28;91958;-76
2022/09/25 05:33:44;;;;;;;7.22;3.53;;;12.20;99.90;;;;;;4889937;28;91488;-77
2022/09/25 05:36:11;;;;;;;6.68;3.60;;;12.30;99.90;;;;;;4909445;28;91304;-74
2022/09/25 05:38:38;;;;;;;6.55;3.42;;;12.40;99.90;;;;;;4897242;28;93233;-74
2022/09/25 05:41:09;;;;;;;6.68;3.20;;;12.50;99.90;;;;;;4899121;28;93190;-75
2022/09/25 05:43:39;;;;;;;5.70;3.05;;;12.60;99.90;;;;;;4902946;28;91923;-76
2022/09/25 05:46:05;;;;;;;6.35;3.40;;;12.60;99.90;;;;;;4911138;28;92653;-78
2022/09/25 05:48:31;;;;;;;7.72;4.00;;;12.60;99.90;;;;;;4898814;28;91614;-78
2022/09/25 05:50:57;;;;;;;8.80;4.15;;;12.70;99.90;;;;;;4908936;28;91891;-78
2022/09/25 05:53:24;;;;;;;7.80;3.75;;;12.70;99.90;;;;;;4876202;28;91426;-78
2022/09/25 05:55:56;;;;;;;7.22;3.70;;;12.70;99.90;;;;;;4893347;28;91231;-77
2022/09/25 05:58:23;;;;;;;4.85;3.53;;;12.80;99.90;;;;;;4895130;28;91564;-81
2022/09/25 06:00:49;;;;;;;5.50;3.03;;;13.00;99.90;;;;;;4891047;28;92623;-77
2022/09/25 06:03:15;;;;;;;6.93;3.92;;;13.10;99.90;;;;;;4894052;28;95639;-77
2022/09/25 06:05:41;;;;;;;7.70;3.72;;;13.20;99.90;;;;;;4896662;28;92113;-75
2022/09/25 06:08:07;;;;;;;5.75;3.22;;;13.30;99.90;;;;;;4894740;28;92370;-74
2022/09/25 06:10:33;;;;;;;8.15;3.58;;;13.50;99.90;;;;;;4897304;28;92038;-81
2022/09/25 06:13:01;;;;;;;5.18;3.00;;;13.80;99.90;;;;;;4897192;28;91542;-73
2022/09/25 06:15:28;;;;;;;3.97;2.25;;;14.00;99.90;;;;;;4897385;28;92614;-74
2022/09/25 06:17:56;;;;;;;3.58;1.83;;;14.30;99.90;;;;;;4895558;28;91595;-76
2022/09/25 06:20:23;;;;;;;3.33;1.63;;;14.20;99.90;;;;;;4897699;28;91230;-74
2022/09/25 06:22:53;;;;;;;3.13;1.25;;;14.10;99.90;;;;;;4896991;28;91377;-75
2022/09/25 06:25:19;;;;;;;3.35;1.50;;;14.10;99.90;;;;;;4896329;28;91934;-74
2022/09/25 06:27:45;;;;;;;3.50;1.65;;;14.30;99.90;;;;;;4895156;28;93725;-77
2022/09/25 06:30:11;;;;;;;4.57;1.70;;;14.30;99.90;;;;;;4892550;28;92995;-74
2022/09/25 06:32:37;;;;;;;5.38;1.65;;;14.00;99.90;;;;;;4896762;28;91852;-76
2022/09/25 06:35:03;;;;;;;4.15;2.00;;;13.80;99.90;;;;;;4897214;28;92453;-75
2022/09/25 06:37:29;;;;;;;3.50;1.73;;;13.60;99.90;;;;;;4896582;28;92015;-76
2022/09/25 06:39:54;;;;;;;2.92;1.52;;;13.30;99.90;;;;;;4893206;28;91917;-77
2022/09/25 06:42:20;;;;;;;3.63;1.25;;;13.60;99.90;;;;;;4894642;28;91902;-75
2022/09/25 06:44:46;;;;;;;4.03;1.80;;;13.70;99.90;;;;;;4896511;28;91337;-76
2022/09/25 06:47:12;;;;;;;4.60;2.10;;;13.80;99.90;;;;;;4897097;28;92592;-77
2022/09/25 06:49:38;;;;;;;6.50;2.70;;;14.00;99.90;;;;;;4898952;28;92444;-76
2022/09/25 06:52:03;;;;;;;3.67;1.83;;;14.20;99.90;;;;;;4901118;28;92599;-75
2022/09/25 06:54:30;;;;;;;3.55;1.85;;;14.40;99.90;;;;;;4896147;28;93098;-77
2022/09/25 06:56:56;;;;;;;4.85;2.10;;;14.60;99.90;;;;;;4895402;28;92325;-76
2022/09/25 06:59:22;;;;;;;4.57;2.28;;;15.00;99.90;;;;;;4892411;28;91698;-75
2022/09/25 07:01:48;;;;;;;4.45;2.20;;;15.40;99.90;;;;;;4898553;28;91870;-76
2022/09/25 07:04:13;;;;;;;4.35;2.30;;;15.40;99.90;;;;;;4896653;28;91323;-75
2022/09/25 07:06:39;;;;;;;4.53;2.30;;;16.00;99.90;;;;;;4896354;28;91768;-76
2022/09/25 07:09:05;;;;;;;3.97;1.90;;;16.40;99.90;;;;;;4896436;28;91303;-76
2022/09/25 07:11:30;;;;;;;4.20;2.25;;;16.80;99.90;;;;;;4898141;28;91697;-76
2022/09/25 07:13:57;;;;;;;4.28;2.22;;;17.40;97.40;;;;;;4892514;28;92244;-75
2022/09/25 07:16:25;;;;;;;3.50;2.08;;;17.90;97.00;;;;;;4892855;28;92773;-74
2022/09/25 07:18:59;;;;;;;4.07;2.08;;;18.50;93.40;;;;;;4899055;28;92912;-75
2022/09/25 07:21:28;;;;;;;5.00;2.83;;;18.60;91.50;;;;;;4900773;28;92260;-75
2022/09/25 07:23:54;;;;;;;4.53;1.67;;;18.40;91.90;;;;;;4901974;28;91990;-76
2022/09/25 07:26:24;;;;;;;5.47;2.30;;;18.20;92.10;;;;;;4888608;28;92195;-75
2022/09/25 07:28:56;;;;;;;4.68;2.95;;;17.90;92.90;;;;;;4891482;28;92100;-79
2022/09/25 07:31:24;;;;;;;4.07;2.35;;;17.80;92.90;;;;;;4884991;28;92614;-77
2022/09/25 07:33:51;;;;;;;7.18;2.47;;;17.80;93.00;;;;;;4887760;28;90595;-77
2022/09/25 07:36:17;;;;;;;5.50;2.17;;;17.60;93.00;;;;;;4891795;28;92206;-77
2022/09/25 07:38:44;;;;;;;5.78;2.55;;;17.60;93.40;;;;;;4895330;28;92422;-76
2022/09/25 07:41:11;;;;;;;3.97;2.63;;;17.40;92.90;;;;;;4893244;28;92598;-78
2022/09/25 07:43:37;;;;;;;6.18;2.13;;;17.40;92.80;;;;;;4874782;28;91575;-78
2022/09/25 07:46:04;;;;;;;5.60;2.80;;;17.20;94.00;;;;;;4872440;28;94259;-77
2022/09/25 07:48:30;;;;;;;5.35;3.08;;;17.20;93.90;;;;;;4892523;28;92004;-78
2022/09/25 07:51:04;;;;;;;6.03;3.67;;;17.30;93.90;;;;;;4888715;28;93196;-77
2022/09/25 07:53:30;;;;;;;7.63;4.45;;;17.30;93.80;;;;;;4876855;28;91814;-78
2022/09/25 07:55:58;;;;;;;6.72;3.70;;;17.20;94.20;;;;;;4895417;28;92250;-77
2022/09/25 07:58:24;;;;;;;6.47;4.05;;;17.20;95.50;;;;;;4892253;28;91366;-77
2022/09/25 08:00:50;;;;;;;9.23;5.50;;;17.30;96.10;;;;;;4894227;28;92211;-77
2022/09/25 08:03:16;;;;;;;5.80;4.05;;;17.70;94.60;;;;;;4892288;28;91348;-75
2022/09/25 08:05:42;;;;;;;6.05;3.92;;;17.90;94.00;;;;;;4893376;28;92585;-77
2022/09/25 08:08:08;;;;;;;8.48;5.40;;;18.10;94.10;;;;;;4893662;28;92020;-77
2022/09/25 08:10:33;;;;;;;7.32;5.03;;;17.60;94.00;;;;;;4894399;28;92196;-76
2022/09/25 08:12:59;;;;;;;6.85;4.38;;;17.10;96.00;;;;;;4898657;28;91675;-77
2022/09/25 08:15:25;;;;;;;8.50;5.25;;;16.80;97.10;;;;;;4892135;28;92336;-76
2022/09/25 08:17:51;;;;;;;8.88;6.07;;;16.60;98.00;;;;;;4897240;28;91788;-75
2022/09/25 08:20:17;;;;;;;10.43;5.97;;;16.40;98.60;;;;;;4899209;28;92191;-76
2022/09/25 08:22:42;;;;;;;9.77;6.38;;;16.30;99.10;;;;;;4901296;28;91039;-77
2022/09/25 08:25:08;;;;;;;11.23;7.07;;;16.00;99.90;;;;;;4896788;28;91764;-77
2022/09/25 08:27:39;;;;;;;14.68;8.88;;;16.00;99.90;;;;;;4900251;28;92137;-77
2022/09/25 08:30:09;;;;;;;9.50;6.28;;;15.90;99.90;;;;;;4895331;28;92212;-76
2022/09/25 08:32:35;;;;;;;10.45;6.65;;;16.10;99.90;;;;;;4884166;28;91500;-77
2022/09/25 08:35:02;;;;;;;10.18;6.40;;;16.50;99.90;;;;;;4888864;28;92625;-76
2022/09/25 08:37:30;;;;;;;9.30;6.18;;;16.60;99.90;;;;;;4894141;28;91413;-76
2022/09/25 08:39:57;;;;;;;11.10;7.22;;;17.00;99.80;;;;;;4898721;28;91372;-77
2022/09/25 08:42:35;;;;;;;9.15;6.22;;;17.10;97.80;;;;;;4888756;28;91930;-75
2022/09/25 08:50:38;;;;;;;12.07;6.93;;;16.80;98.50;;;;;;4895177;28;92021;-77
2022/09/25 08:53:22;;;;;;;11.15;6.78;;;16.60;98.70;;;;;;4895540;28;92032;-75
2022/09/25 08:58:41;;;;;;;15.15;7.38;;;16.10;99.90;;;;;;4889587;28;92125;-76
2022/09/25 09:01:16;;;;;;;11.73;6.70;;;15.80;99.90;;;;;;4889955;28;91327;-76
2022/09/25 09:04:18;;;;;;;13.02;6.75;;;15.70;99.90;;;;;;4893393;28;91688;-77
2022/09/25 09:06:46;;;;;;;10.02;6.20;;;15.90;99.90;;;;;;4863896;28;92271;-77
2022/09/25 09:09:33;;;;;;;10.50;6.13;;;15.90;99.90;;;;;;4891007;28;93608;-77
2022/09/25 09:12:14;;;;;;;10.02;5.47;;;16.10;99.90;;;;;;4886906;28;91480;-77
2022/09/25 09:15:10;;;;;;;10.73;6.25;;;16.30;99.90;;;;;;4895789;28;91247;-77
2022/09/25 09:17:41;;;;;;;10.73;6.13;;;16.40;99.40;;;;;;4893040;28;92274;-77
2022/09/25 09:20:22;;;;;;;9.13;6.15;;;16.20;99.90;;;;;;4897903;28;92516;-78
2022/09/25 09:22:51;;;;;;;12.23;5.82;;;16.10;99.90;;;;;;4892918;28;92996;-76
2022/09/25 09:26:00;;;;;;;9.75;5.82;;;16.50;99.40;;;;;;4891447;28;91570;-76
2022/09/25 09:28:44;;;;;;;10.75;5.75;;;16.30;99.90;;;;;;4892376;28;92515;-77
2022/09/25 09:31:34;;;;;;;8.52;5.50;;;16.80;99.20;;;;;;4892219;28;91334;-76
2022/09/25 09:34:24;;;;;;;7.82;5.30;;;16.90;97.60;;;;;;4896215;28;91932;-78
2022/09/25 09:37:02;;;;;;;9.15;5.50;;;16.70;98.40;;;;;;4897360;28;91941;-75
2022/09/25 09:39:47;;;;;;;8.68;5.53;;;16.40;98.80;;;;;;4898097;28;92025;-75
2022/09/25 09:42:52;;;;;;;7.13;4.38;;;16.50;98.40;;;;;;4898598;28;91890;-75
2022/09/25 09:45:35;;;;;;;8.95;4.03;;;16.70;97.60;;;;;;4809985;29;91503;-75
2022/09/25 09:48:14;;;;;;;8.80;5.00;;;16.70;98.00;;;;;;4886053;28;91444;-76
2022/09/25 09:50:46;;;;;;;9.77;5.20;;;16.60;97.40;;;;;;4893971;28;92851;-75
2022/09/25 09:53:53;;;;;;;8.20;4.60;;;16.70;98.10;;;;;;4893865;28;92786;-75
2022/09/25 09:56:28;;;;;;;7.63;3.97;;;17.30;97.80;;;;;;4843725;29;91635;-75
2022/09/25 09:58:56;;;;;;;;;;;18.30;96.20;;;;;;4900642;28;92130;-77
2022/09/25 10:01:27;;;;;;;8.50;4.68;;;19.40;91.70;;;;;;4912133;28;92344;-77
2022/09/25 10:04:16;;;;;;;7.53;4.38;;;21.80;90.10;;;;;;4907641;28;91887;-77
2022/09/25 10:06:56;;;;;;;7.00;4.45;;;25.40;75.90;;;;;;4891561;28;92107;-77
2022/09/25 10:09:24;;;;;;;8.52;4.43;;;26.00;66.50;;;;;;4909292;28;90596;-76
2022/09/25 10:12:11;;;;;;;7.47;5.25;;;25.80;64.50;;;;;;4889949;28;93312;-77
2022/09/25 10:14:41;;;;;;;8.20;5.05;;;25.20;62.60;;;;;;4878821;28;91981;-77
2022/09/25 10:17:10;;;;;;;7.32;3.88;;;24.50;66.20;;;;;;4896157;28;92906;-77
2022/09/25 10:19:43;;;;;;;6.60;4.68;;;24.40;65.40;;;;;;4896366;28;91721;-77
2022/09/25 10:22:15;;;;;;;6.20;4.50;;;24.50;64.50;;;;;;4895350;28;92315;-76
2022/09/25 10:24:50;;;;;;;6.20;4.60;;;24.40;67.70;;;;;;4894844;28;91893;-77
2022/09/25 10:27:26;;;;;;;6.72;4.65;;;25.20;65.30;;;;;;4894347;28;91832;-76
2022/09/25 10:30:10;;;;;;;8.93;5.30;;;25.50;63.10;;;;;;4892335;28;91490;-76
2022/09/25 10:32:54;;;;;;;10.48;5.50;;;24.40;62.90;;;;;;4890124;28;92318;-76
2022/09/25 10:35:23;;;;;;;8.10;4.00;;;23.00;67.20;;;;;;4885573;28;92516;-75
2022/09/25 10:37:53;;;;;;;6.82;4.70;;;22.20;72.20;;;;;;4894463;28;92068;-75
2022/09/25 10:40:28;;;;;;;6.90;5.22;;;22.40;71.00;;;;;;4890982;28;91909;-78
2022/09/25 10:43:05;;;;;;;7.13;5.78;;;21.80;70.60;;;;;;4894377;28;93609;-75
2022/09/25 10:45:34;;;;;;;7.00;4.65;;;21.20;73.10;;;;;;4893450;28;92149;-77
2022/09/25 10:50:44;;;;;;;5.88;3.83;;;20.60;77.90;;;;;;4883883;28;92160;-75
2022/09/25 10:53:28;;;;;;;6.15;4.10;;;21.30;75.20;;;;;;4885913;28;91975;-76
2022/09/25 10:56:01;;;;;;;7.15;4.57;;;21.50;73.60;;;;;;4896036;28;91935;-76
2022/09/25 10:58:34;;;;;;;5.85;4.38;;;21.80;71.70;;;;;;4890701;28;92066;-77
2022/09/25 11:01:02;;;;;;;5.45;3.92;;;21.10;73.50;;;;;;4897335;28;90635;-76
2022/09/25 11:03:38;;;;;;;6.07;3.72;;;20.60;74.80;;;;;;4878964;28;94093;-76
2022/09/25 11:06:19;;;;;;;5.70;3.65;;;20.70;75.70;;;;;;4886967;28;92002;-75
2022/09/25 11:08:48;;;;;;;4.90;3.30;;;20.70;74.70;;;;;;4895708;28;92288;-75
2022/09/25 11:11:21;;;;;;;7.72;3.58;;;20.60;74.00;;;;;;4896904;28;91407;-76
2022/09/25 11:13:51;;;;;;;4.38;2.78;;;20.30;75.90;;;;;;4888755;28;92305;-75
2022/09/25 11:16:18;;;;;;;4.88;3.08;;;20.50;76.20;;;;;;4891357;28;91841;-74
2022/09/25 11:19:03;;;;;;;4.88;3.15;;;21.10;73.50;;;;;;4896631;28;91411;-76
2022/09/25 11:21:42;;;;;;;6.70;4.65;;;21.10;72.70;;;;;;4895680;28;91634;-75
2022/09/25 11:24:22;;;;;;;5.05;3.25;;;20.80;73.10;;;;;;4896330;28;92321;-77
2022/09/25 11:26:57;;;;;;;5.65;3.97;;;21.30;72.90;;;;;;4897374;28;92575;-76
2022/09/25 11:30:00;;;;;;;4.57;3.33;;;21.40;71.90;;;;;;4897555;28;91889;-76
2022/09/25 11:32:31;;;;;;;5.63;3.45;;;20.90;73.40;;;;;;4885159;28;91953;-75
2022/09/25 11:35:12;;;;;;;4.40;3.17;;;20.40;75.50;;;;;;4893091;28;93020;-76
2022/09/25 11:37:42;;;;;;;5.90;3.58;;;20.40;75.50;;;;;;4889187;28;93050;-75
2022/09/25 11:43:24;;;;;;;6.03;4.00;;;20.00;76.30;;;;;;4888095;28;91747;-78
2022/09/25 11:45:58;;;;;;;6.55;4.15;;;19.60;78.20;;;;;;4893636;28;91602;-79
2022/09/25 11:48:53;;;;;;;6.75;4.07;;;19.50;78.70;;;;;;4892323;28;92006;-77
2022/09/25 11:51:26;;;;;;;6.18;3.65;;;19.40;79.50;;;;;;4893509;28;92116;-77
2022/09/25 11:54:11;;;;;;;5.57;3.95;;;19.80;78.50;;;;;;4896493;28;90704;-77
2022/09/25 11:56:56;;;;;;;6.05;3.92;;;19.60;77.40;;;;;;4897554;28;91934;-77
2022/09/25 11:59:47;;;;;;;5.22;3.78;;;19.00;79.80;;;;;;4897774;28;91259;-78
2022/09/25 12:02:43;;;;;;;7.22;4.38;;;18.50;81.60;;;;;;4898317;28;92367;-77
2022/09/25 12:05:24;;;;;;;6.38;4.47;;;18.20;85.00;;;;;;4898921;28;91737;-80
2022/09/25 12:08:07;;;;;;;8.27;4.22;;;18.20;83.50;;;;;;4895974;28;92239;-75
2022/09/25 12:10:53;;;;;;;5.78;4.10;;;18.20;84.80;;;;;;4898854;28;91272;-77
2022/09/25 12:13:38;;;;;;;5.88;4.00;;;18.20;85.20;;;;;;4899076;28;91587;-81
2022/09/25 12:16:25;;;;;;;7.50;5.57;;;18.60;83.50;;;;;;4899944;28;91342;-79
2022/09/25 12:19:03;;;;;;;6.65;4.95;;;18.30;84.70;;;;;;4897910;28;92302;-79
2022/09/25 12:21:35;;;;;;;7.50;4.80;;;17.80;86.00;;;;;;4895444;28;92439;-80
2022/09/25 12:24:01;;;;;;;7.97;4.80;;;17.40;88.60;;;;;;4892389;28;92121;-81
2022/09/25 12:26:53;;;;;;;6.50;4.35;;;17.40;89.60;;;;;;4899355;28;91344;-75
2022/09/25 12:29:31;;;;;;;8.20;4.60;;;17.60;88.80;;;;;;4898356;28;93212;-77
2022/09/25 12:32:37;;;;;;;8.82;4.90;;;17.90;88.10;;;;;;4891383;28;93002;-77
2022/09/25 12:35:25;;;;;;;8.57;5.07;;;17.50;88.90;;;;;;4894455;28;92082;-75
2022/09/25 12:38:20;;;;;;;8.55;4.78;;;17.30;90.80;;;;;;4905245;28;91789;-77
2022/09/25 12:40:56;;;;;;;8.40;4.63;;;17.70;90.70;;;;;;4858201;28;92025;-76
2022/09/25 12:43:40;;;;;;;9.48;5.65;;;18.10;88.70;;;;;;4863830;28;93355;-77
2022/09/25 12:46:48;;;;;;;8.23;4.35;;;18.00;89.10;;;;;;4899874;28;92175;-77
2022/09/25 12:49:22;;;;;;;8.45;5.13;;;18.10;88.90;;;;;;4864608;28;92776;-78
2022/09/25 12:51:50;;;;;;;7.15;4.47;;;17.70;91.10;;;;;;4896855;28;91822;-75
2022/09/25 12:54:52;;;;;;;6.68;4.75;;;17.50;91.50;;;;;;4898645;28;91696;-75
2022/09/25 12:57:21;;;;;;;8.45;4.18;;;17.40;92.50;;;;;;4891236;28;92240;-77
2022/09/25 12:59:55;;;;;;;8.88;5.10;;;17.40;93.30;;;;;;4898440;28;91321;-76
2022/09/25 13:02:42;;;;;;;7.10;4.78;;;17.40;92.80;;;;;;4897958;28;91809;-77
2022/09/25 13:05:36;;;;;;;5.97;3.95;;;17.80;92.60;;;;;;4897911;28;91399;-78
2022/09/25 13:08:19;;;;;;;7.68;4.68;;;18.30;91.70;;;;;;4890138;28;92069;-77
2022/09/25 13:10:50;;;;;;;;;;;18.90;90.10;;;;;;4899718;28;92029;-77
2022/09/25 13:13:21;;;;;;;6.95;4.75;;;19.10;87.10;;;;;;4898615;28;92441;-74
2022/09/25 13:16:04;;;;;;;7.20;4.20;;;18.50;89.10;;;;;;4890703;28;91246;-75
2022/09/25 13:18:34;;;;;;;7.40;4.90;;;18.20;90.40;;;;;;4893743;28;91399;-76
2022/09/25 13:21:28;;;;;;;6.88;4.72;;;18.20;90.20;;;;;;4887969;28;93065;-74
2022/09/25 13:23:55;;;;;;;6.90;5.03;;;18.20;90.20;;;;;;4891141;28;93654;-79
2022/09/25 13:26:26;;;;;;;7.68;5.25;;;18.40;89.30;;;;;;4890280;28;92914;-76
2022/09/25 13:29:03;;;;;;;6.78;4.38;;;18.10;90.00;;;;;;4895518;28;94194;-76
2022/09/25 13:31:32;;;;;;;6.60;4.65;;;18.20;89.80;;;;;;4874802;28;91442;-76
2022/09/25 13:34:00;;;;;;;6.30;4.00;;;18.10;90.10;;;;;;4887736;28;91847;-75
2022/09/25 13:36:47;;;;;;;6.53;4.15;;;18.40;87.70;;;;;;4896615;28;92794;-76
2022/09/25 13:42:10;;;;;;;6.80;3.70;;;18.80;87.70;;;;;;4901434;28;91360;-75
2022/09/25 13:44:42;;;;;;;5.47;3.40;;;18.60;86.80;;;;;;4901130;28;93021;-76
2022/09/25 13:47:23;;;;;;;5.03;3.20;;;18.50;87.00;;;;;;4900459;28;91885;-77
2022/09/25 13:49:54;;;;;;;6.65;3.90;;;18.60;86.50;;;;;;4891852;28;92620;-76
2022/09/25 13:52:43;;;;;;;6.20;4.05;;;18.30;87.90;;;;;;4895509;28;92007;-77
2022/09/25 13:55:19;;;;;;;6.35;3.80;;;18.10;89.60;;;;;;4889005;28;91609;-76
2022/09/25 13:58:17;;;;;;;9.00;4.60;;;18.00;88.90;;;;;;4898267;28;91994;-76
2022/09/25 14:00:52;;;;;;;5.82;3.83;;;18.20;90.00;;;;;;4901051;28;91913;-76
2022/09/25 14:03:45;;;;;;;6.93;3.42;;;18.00;89.70;;;;;;4900327;28;91526;-77
2022/09/25 14:06:31;;;;;;;5.70;3.65;;;18.10;90.10;;;;;;4888080;28;91979;-76
2022/09/25 14:09:07;;;;;;;6.50;4.20;;;18.20;89.40;;;;;;4898677;28;92140;-75
2022/09/25 14:11:36;;;;;;;5.40;3.40;;;17.70;90.50;;;;;;4888801;28;92249;-75
2022/09/25 14:14:06;;;;;;;5.60;3.50;;;17.80;90.70;;;;;;4891903;28;92070;-75
2022/09/25 14:16:44;;;;;;;5.45;3.28;;;17.90;90.50;;;;;;4894761;28;93556;-76
2022/09/25 14:19:24;;;;;;;5.15;3.30;;;17.60;90.50;;;;;;4894788;28;92164;-75
2022/09/25 14:21:50;;;;;;;6.40;2.95;;;17.30;90.90;;;;;;4893499;28;92979;-74
2022/09/25 14:24:28;;;;;;;3.78;2.45;;;17.20;91.30;;;;;;4891393;28;91359;-74
2022/09/25 14:26:56;;;;;;;5.25;2.40;;;17.30;90.40;;;;;;4889649;28;92338;-75
2022/09/25 14:29:29;;;;;;;4.05;2.03;;;17.40;88.20;;;;;;4890345;28;91893;-75
2022/09/25 14:32:18;;;;;;;3.03;1.25;;;17.10;90.20;;;;;;4876881;28;92129;-75
2022/09/25 14:35:23;;;;;;;2.50;1.20;;;16.90;90.90;;;;;;4889791;28;91139;-76
2022/09/25 14:38:10;;;;;;;2.72;1.40;;;17.00;90.80;;;;;;4887433;28;92452;-75
2022/09/25 14:40:48;;;;;;;3.40;1.45;;;17.00;90.50;;;;;;4885165;28;91943;-78
2022/09/25 14:43:49;;;;;;;1.80;0.98;;;17.10;90.50;;;;;;4892381;28;93802;-76
2022/09/25 14:46:19;;;;;;;2.28;1.40;;;17.30;87.90;;;;;;4890929;28;92487;-74
2022/09/25 14:48:58;;;;;;;3.10;1.05;;;17.20;90.20;;;;;;4889257;28;92124;-78
2022/09/25 14:51:40;;;;;;;2.10;0.95;;;17.10;90.00;;;;;;4894979;28;91439;-75
2022/09/25 14:54:10;;;;;;;1.92;1.23;;;17.30;88.90;;;;;;4891472;28;91815;-75
2022/09/25 14:56:36;;;;;;;3.60;1.40;;;17.40;89.60;;;;;;4886822;28;93300;-76
2022/09/25 14:59:10;;;;;;;3.03;1.70;;;17.30;88.30;;;;;;4888912;28;92053;-76
2022/09/25 15:01:45;;;;;;;3.05;1.80;;;17.30;89.10;;;;;;4890144;28;92514;-74
2022/09/25 15:04:11;;;;;;;2.85;1.70;;;17.20;90.20;;;;;;4893942;28;92663;-75
2022/09/25 15:06:39;;;;;;;3.15;1.70;;;17.30;88.40;;;;;;4893229;28;92497;-74
2022/09/25 15:09:48;;;;;;;2.83;1.60;;;17.30;88.90;;;;;;4884315;28;93075;-76
2022/09/25 15:12:32;;;;;;;2.55;1.40;;;17.10;90.20;;;;;;4886605;28;93509;-74
2022/09/25 15:15:03;;;;;;;3.80;1.70;;;16.90;90.90;;;;;;4889975;28;91436;-74
2022/09/25 15:17:30;;;;;;;3.67;1.70;;;16.50;91.70;;;;;;4887326;28;91773;-75
2022/09/25 15:20:00;;;;;;;3.78;1.88;;;16.20;92.50;;;;;;4888273;28;92645;-74
2022/09/25 15:22:32;;;;;;;;;;;16.30;93.00;;;;;;4888015;28;91987;-76
2022/09/25 15:25:02;;;;;;;3.28;1.52;;;16.40;93.50;;;;;;4895548;28;92107;-75
2022/09/25 15:27:29;;;;;;;7.72;1.85;;;16.40;93.00;;;;;;4892053;28;92857;-74
2022/09/25 15:29:56;;;;;;;3.92;1.73;;;16.50;92.70;;;;;;4885475;28;91819;-72
2022/09/25 15:32:32;;;;;;;4.95;2.10;;;16.60;93.20;;;;;;4888424;28;92172;-75
2022/09/25 15:35:07;;;;;;;4.57;1.95;;;16.50;93.80;;;;;;4902232;28;92318;-83
2022/09/25 15:37:33;;;;;;;5.93;2.22;;;16.60;93.90;;;;;;4888538;28;91724;-84
2022/09/25 15:40:27;;;;;;;4.22;2.33;;;16.40;95.20;;;;;;4893363;28;91738;-78
2022/09/25 15:42:54;;;;;;;4.85;2.65;;;15.90;96.40;;;;;;4893526;28;92057;-82
2022/09/25 15:45:35;;;;;;;5.53;2.90;;;15.90;96.80;;;;;;4885915;28;91758;-77
2022/09/25 15:48:21;;;;;;;4.40;2.10;;;16.00;98.60;;;;;;4890120;28;91802;-78
2022/09/25 15:50:48;;;;;;;3.88;2.25;;;16.40;96.10;;;;;;4887434;28;91766;-76
2022/09/25 15:53:31;;;;;;;3.65;2.08;;;16.10;96.80;;;;;;4896112;28;91798;-78
2022/09/25 15:56:26;;;;;;;4.35;2.10;;;16.20;96.60;;;;;;4888943;28;91966;-79
2022/09/25 15:58:53;;;;;;;3.92;2.40;;;15.90;98.40;;;;;;4892582;28;91287;-78
2022/09/25 16:07:28;;;;;;;4.65;1.60;;;15.50;99.90;;;;;;4886889;28;92153;-80
2022/09/25 16:09:57;;;;;;;3.50;2.10;;;15.70;99.90;;;;;;4883374;28;92420;-77
2022/09/25 16:12:26;;;;;;;3.33;1.73;;;15.60;99.90;;;;;;4885676;28;93890;-73
2022/09/25 16:14:53;;;;;;;2.90;1.75;;;15.40;99.90;;;;;;4883442;28;91768;-76
2022/09/25 16:17:30;;;;;;;3.20;1.90;;;15.20;99.90;;;;;;4891028;28;92386;-76
2022/09/25 16:20:01;;;;;;;3.85;1.90;;;15.30;99.90;;;;;;4898924;28;91380;-74
2022/09/25 16:22:31;;;;;;;3.40;1.70;;;15.30;99.90;;;;;;4889090;28;91949;-75
2022/09/25 16:24:57;;;;;;;3.42;1.30;;;15.20;99.90;;;;;;4890416;28;93067;-74
2022/09/25 16:27:32;;;;;;;3.17;1.70;;;15.20;99.90;;;;;;4892878;28;92919;-76
2022/09/25 16:30:01;;;;;;;5.85;2.20;;;15.40;99.90;;;;;;4884917;28;91588;-73
2022/09/25 16:32:27;;;;;;;3.15;1.40;;;15.50;99.90;;;;;;4888333;28;94209;-75
2022/09/25 16:35:00;;;;;;;3.83;2.13;;;15.50;99.90;;;;;;4896259;28;91950;-76
2022/09/25 16:37:31;;;;;;;3.10;2.03;;;15.20;99.90;;;;;;4890775;28;91339;-75
2022/09/25 16:40:27;;;;;;;5.97;2.10;;;15.00;99.90;;;;;;4907151;28;92033;-74
2022/09/25 16:42:55;;;;;;;6.60;2.28;;;15.00;99.90;;;;;;4886979;28;92343;-76
2022/09/25 16:45:33;;;;;;;4.40;2.13;;;14.90;99.90;;;;;;4889309;28;91076;-77
2022/09/25 16:48:20;;;;;;;3.70;2.00;;;14.90;99.90;;;;;;4897085;28;92263;-76
2022/09/25 16:50:47;;;;;;;4.20;2.40;;;15.00;99.90;;;;;;4892517;28;94614;-75
2022/09/25 16:53:14;;;;;;;3.70;2.15;;;15.10;99.90;;;;;;4892455;28;92466;-74
2022/09/25 16:55:52;;;;;;;3.10;2.10;;;15.10;99.90;;;;;;4891700;28;92795;-73
2022/09/25 16:58:22;;;;;;;4.75;2.08;;;15.20;99.90;;;;;;4895390;28;91677;-75
2022/09/25 17:00:48;;;;;;;5.28;2.33;;;15.20;99.90;;;;;;4895530;28;91365;-75
2022/09/25 17:03:14;;;;;;;3.97;2.08;;;15.10;99.90;;;;;;4892784;28;92250;-76
2022/09/25 17:05:40;;;;;;;4.15;2.38;;;15.20;99.90;;;;;;4891668;28;91847;-76
2022/09/25 17:08:26;;;;;;;5.50;2.10;;;15.20;99.90;;;;;;4898573;28;91927;-76
2022/09/25 17:10:52;;;;;;;5.28;2.30;;;15.10;99.90;;;;;;4896493;28;90751;-75
2022/09/25 17:13:27;;;;;;;4.50;3.03;;;15.00;99.90;;;;;;4889969;28;92699;-73
2022/09/25 17:15:54;;;;;;;5.05;2.35;;;14.90;99.90;;;;;;4885159;28;92743;-73
2022/09/25 17:18:21;;;;;;;4.75;2.60;;;14.90;99.90;;;;;;4890827;28;93439;-71
2022/09/25 17:20:50;;;;;;;4.75;2.05;;;15.00;99.90;;;;;;4892340;28;92216;-74
2022/09/25 17:23:18;;;;;;;;;;;14.80;99.90;;;;;;4895513;28;92682;-78
2022/09/25 17:25:52;;;;;;;2.30;1.00;;;14.80;99.90;;;;;;4898385;28;91774;-77
2022/09/25 17:28:17;;;;;;;3.90;1.33;;;14.90;99.90;;;;;;4890693;28;92334;-78
2022/09/25 17:30:43;;;;;;;2.78;1.20;;;14.90;99.90;;;;;;4892976;28;92042;-80
2022/09/25 17:33:17;;;;;;;2.50;1.20;;;14.90;99.90;;;;;;4892455;28;92203;-78
2022/09/25 17:35:51;;;;;;;2.67;1.05;;;14.70;99.90;;;;;;4890239;28;92489;-79
2022/09/25 17:38:17;;;;;;;3.30;1.33;;;14.60;99.90;;;;;;4894569;28;91359;-77
2022/09/25 17:40:45;;;;;;;2.10;1.20;;;14.60;99.90;;;;;;4889272;28;92069;-81
2022/09/25 17:43:12;;;;;;;2.35;1.15;;;14.70;99.90;;;;;;4890327;28;93596;-78
2022/09/25 17:45:44;;;;;;;5.10;1.33;;;14.50;99.90;;;;;;4893224;28;92597;-78
2022/09/25 17:48:10;;;;;;;2.28;1.27;;;14.50;99.90;;;;;;4889460;28;91719;-76